sensor_id;sensor_type;location;lat;lon;timestamp;temperature;humidity
14555;DHT22;7364;50.870;4.722;2022-11-15T00:01:16;11.10;99.90
14555;DHT22;7364;50.870;4.722;2022-11-15T00:03:44;11.10;99.90
14555;DHT22;7364;50.870;4.722;2022-11-15T00:06:12;11.10;99.90
14555;DHT22;7364;50.870;4.722;2022-11-15T00:08:39;11.10;99.90
14555;DHT22;7364;50.870;4.722;2022-11-15T00:11:06;11.10;99.90
14555;DHT22;7364;50.870;4.722;2022-11-15T00:13:34;11.20;99.90
14555;DHT22;7364;50.870;4.722;2022-11-15T00:16:03;11.20;99.90
14555;DHT22;7364;50.870;4.722;2022-11-15T00:18:30;11.20;99.90
14555;DHT22;7364;50.870;4.722;2022-11-15T00:21:12;11.30;99.90
14555;DHT22;7364;50.870;4.722;2022-11-15T00:23:40;11.30;99.90
14555;DHT22;7364;50.870;4.722;2022-11-15T00:26:12;11.20;99.90
14555;DHT22;7364;50.870;4.722;2022-11-15T00:28:40;11.20;99.90
14555;DHT22;7364;50.870;4.722;2022-11-15T00:31:13;11.30;99.90
14555;DHT22;7364;50.870;4.722;2022-11-15T00:33:43;11.30;99.90
14555;DHT22;7364;50.870;4.722;2022-11-15T00:36:10;11.40;99.90
14555;DHT22;7364;50.870;4.722;2022-11-15T00:38:39;11.50;99.90
14555;DHT22;7364;50.870;4.722;2022-11-15T00:41:07;11.40;99.90
14555;DHT22;7364;50.870;4.722;2022-11-15T00:43:35;11.40;99.90
14555;DHT22;7364;50.870;4.722;2022-11-15T00:46:02;11.40;99.90
14555;DHT22;7364;50.870;4.722;2022-11-15T00:48:31;11.50;99.90
14555;DHT22;7364;50.870;4.722;2022-11-15T00:50:59;11.60;99.90
14555;DHT22;7364;50.870;4.722;2022-11-15T01:00:05;11.70;99.90
14555;DHT22;7364;50.870;4.722;2022-11-15T01:02:33;11.70;99.90
14555;DHT22;7364;50.870;4.722;2022-11-15T01:05:03;11.70;99.90
14555;DHT22;7364;50.870;4.722;2022-11-15T01:07:30;11.80;99.90
14555;DHT22;7364;50.870;4.722;2022-11-15T01:09:58;11.80;99.90
14555;DHT22;7364;50.870;4.722;2022-11-15T01:12:25;11.90;99.90
14555;DHT22;7364;50.870;4.722;2022-11-15T01:14:52;11.90;99.90
14555;DHT22;7364;50.870;4.722;2022-11-15T01:17:19;11.90;99.90
14555;DHT22;7364;50.870;4.722;2022-11-15T01:19:47;11.90;99.90
14555;DHT22;7364;50.870;4.722;2022-11-15T01:22:16;12.00;99.90
14555;DHT22;7364;50.870;4.722;2022-11-15T01:24:43;12.10;99.90
14555;DHT22;7364;50.870;4.722;2022-11-15T01:27:10;12.00;99.90
14555;DHT22;7364;50.870;4.722;2022-11-15T01:29:37;12.00;99.90
14555;DHT22;7364;50.870;4.722;2022-11-15T01:32:04;12.00;99.90
14555;DHT22;7364;50.870;4.722;2022-11-15T01:34:32;11.90;99.90
14555;DHT22;7364;50.870;4.722;2022-11-15T01:36:59;11.90;99.90
14555;DHT22;7364;50.870;4.722;2022-11-15T01:39:27;11.90;99.90
14555;DHT22;7364;50.870;4.722;2022-11-15T01:41:55;11.90;99.90
14555;DHT22;7364;50.870;4.722;2022-11-15T01:44:41;12.00;99.90
14555;DHT22;7364;50.870;4.722;2022-11-15T01:47:13;12.10;99.90
14555;DHT22;7364;50.870;4.722;2022-11-15T01:49:51;12.20;99.90
14555;DHT22;7364;50.870;4.722;2022-11-15T01:52:22;12.10;99.90
14555;DHT22;7364;50.870;4.722;2022-11-15T01:54:55;12.30;99.90
14555;DHT22;7364;50.870;4.722;2022-11-15T01:57:23;12.40;99.90
14555;DHT22;7364;50.870;4.722;2022-11-15T01:59:50;12.40;99.90
14555;DHT22;7364;50.870;4.722;2022-11-15T02:02:18;12.50;99.90
14555;DHT22;7364;50.870;4.722;2022-11-15T02:04:46;12.40;99.90
14555;DHT22;7364;50.870;4.722;2022-11-15T02:07:16;12.60;99.90
14555;DHT22;7364;50.870;4.722;2022-11-15T02:09:45;12.50;99.90
14555;DHT22;7364;50.870;4.722;2022-11-15T02:12:17;12.40;99.90
14555;DHT22;7364;50.870;4.722;2022-11-15T02:14:52;12.40;99.90
14555;DHT22;7364;50.870;4.722;2022-11-15T02:17:38;12.60;99.90
14555;DHT22;7364;50.870;4.722;2022-11-15T02:20:32;12.60;99.90
14555;DHT22;7364;50.870;4.722;2022-11-15T02:23:30;12.70;99.90
14555;DHT22;7364;50.870;4.722;2022-11-15T02:26:19;12.70;99.90
14555;DHT22;7364;50.870;4.722;2022-11-15T02:29:00;12.50;99.90
14555;DHT22;7364;50.870;4.722;2022-11-15T02:31:33;12.40;99.90
14555;DHT22;7364;50.870;4.722;2022-11-15T02:34:08;12.30;99.90
14555;DHT22;7364;50.870;4.722;2022-11-15T02:36:41;12.30;99.90
14555;DHT22;7364;50.870;4.722;2022-11-15T02:39:17;12.40;99.90
14555;DHT22;7364;50.870;4.722;2022-11-15T02:41:49;12.50;99.90
14555;DHT22;7364;50.870;4.722;2022-11-15T02:44:23;12.40;99.90
14555;DHT22;7364;50.870;4.722;2022-11-15T02:46:53;12.40;99.90
14555;DHT22;7364;50.870;4.722;2022-11-15T02:49:40;12.50;99.90
14555;DHT22;7364;50.870;4.722;2022-11-15T02:52:08;12.30;99.90
14555;DHT22;7364;50.870;4.722;2022-11-15T02:54:36;12.30;99.90
14555;DHT22;7364;50.870;4.722;2022-11-15T02:57:07;12.30;99.90
14555;DHT22;7364;50.870;4.722;2022-11-15T03:05:29;12.40;99.90
14555;DHT22;7364;50.870;4.722;2022-11-15T03:08:02;12.40;99.90
14555;DHT22;7364;50.870;4.722;2022-11-15T03:10:36;12.40;99.90
14555;DHT22;7364;50.870;4.722;2022-11-15T03:13:13;12.30;99.90
14555;DHT22;7364;50.870;4.722;2022-11-15T03:15:49;12.20;99.90
14555;DHT22;7364;50.870;4.722;2022-11-15T03:18:22;12.30;99.90
14555;DHT22;7364;50.870;4.722;2022-11-15T03:20:51;12.20;99.90
14555;DHT22;7364;50.870;4.722;2022-11-15T03:23:19;12.20;99.90
14555;DHT22;7364;50.870;4.722;2022-11-15T03:25:50;12.10;99.90
14555;DHT22;7364;50.870;4.722;2022-11-15T03:28:23;12.20;99.90
14555;DHT22;7364;50.870;4.722;2022-11-15T03:30:52;12.30;99.90
14555;DHT22;7364;50.870;4.722;2022-11-15T03:33:22;12.40;99.90
14555;DHT22;7364;50.870;4.722;2022-11-15T03:35:52;12.30;99.90
14555;DHT22;7364;50.870;4.722;2022-11-15T03:38:22;12.30;99.90
14555;DHT22;7364;50.870;4.722;2022-11-15T03:41:00;12.30;99.90
14555;DHT22;7364;50.870;4.722;2022-11-15T03:43:33;12.30;99.90
14555;DHT22;7364;50.870;4.722;2022-11-15T03:46:05;12.30;99.90
14555;DHT22;7364;50.870;4.722;2022-11-15T03:48:49;12.30;99.90
14555;DHT22;7364;50.870;4.722;2022-11-15T03:51:17;12.40;99.90
14555;DHT22;7364;50.870;4.722;2022-11-15T03:53:45;12.30;99.90
14555;DHT22;7364;50.870;4.722;2022-11-15T03:56:13;12.40;99.90
14555;DHT22;7364;50.870;4.722;2022-11-15T03:58:40;12.40;99.90
14555;DHT22;7364;50.870;4.722;2022-11-15T04:01:07;12.40;99.90
14555;DHT22;7364;50.870;4.722;2022-11-15T04:03:36;12.30;99.90
14555;DHT22;7364;50.870;4.722;2022-11-15T04:06:04;12.40;99.90
14555;DHT22;7364;50.870;4.722;2022-11-15T04:08:31;12.40;99.90
14555;DHT22;7364;50.870;4.722;2022-11-15T04:10:58;12.40;99.90
14555;DHT22;7364;50.870;4.722;2022-11-15T04:13:25;12.50;99.90
14555;DHT22;7364;50.870;4.722;2022-11-15T04:15:52;12.50;99.90
14555;DHT22;7364;50.870;4.722;2022-11-15T04:18:19;12.60;99.90
14555;DHT22;7364;50.870;4.722;2022-11-15T04:20:48;12.60;99.90
14555;DHT22;7364;50.870;4.722;2022-11-15T04:23:33;12.40;99.90
14555;DHT22;7364;50.870;4.722;2022-11-15T04:26:26;12.30;99.90
14555;DHT22;7364;50.870;4.722;2022-11-15T04:28:53;12.30;99.90
14555;DHT22;7364;50.870;4.722;2022-11-15T04:31:38;12.30;99.90
14555;DHT22;7364;50.870;4.722;2022-11-15T04:34:05;12.10;99.90
14555;DHT22;7364;50.870;4.722;2022-11-15T04:36:34;12.10;99.90
14555;DHT22;7364;50.870;4.722;2022-11-15T04:39:18;12.00;99.90
14555;DHT22;7364;50.870;4.722;2022-11-15T04:41:45;11.90;99.90
14555;DHT22;7364;50.870;4.722;2022-11-15T04:44:13;12.00;99.90
14555;DHT22;7364;50.870;4.722;2022-11-15T04:46:42;12.20;99.90
14555;DHT22;7364;50.870;4.722;2022-11-15T04:49:09;12.20;99.90
14555;DHT22;7364;50.870;4.722;2022-11-15T04:51:38;12.00;99.90
14555;DHT22;7364;50.870;4.722;2022-11-15T04:54:05;11.90;99.90
14555;DHT22;7364;50.870;4.722;2022-11-15T04:56:32;11.80;99.90
14555;DHT22;7364;50.870;4.722;2022-11-15T04:59:00;11.80;99.90
14555;DHT22;7364;50.870;4.722;2022-11-15T05:01:27;11.70;99.90
14555;DHT22;7364;50.870;4.722;2022-11-15T05:03:54;11.70;99.90
14555;DHT22;7364;50.870;4.722;2022-11-15T05:06:40;11.70;99.90
14555;DHT22;7364;50.870;4.722;2022-11-15T05:09:07;11.60;99.90
14555;DHT22;7364;50.870;4.722;2022-11-15T05:11:34;11.50;99.90
14555;DHT22;7364;50.870;4.722;2022-11-15T05:14:02;11.40;99.90
14555;DHT22;7364;50.870;4.722;2022-11-15T05:16:29;11.40;99.90
14555;DHT22;7364;50.870;4.722;2022-11-15T05:18:56;11.40;99.90
14555;DHT22;7364;50.870;4.722;2022-11-15T05:21:23;11.40;99.90
14555;DHT22;7364;50.870;4.722;2022-11-15T05:23:52;11.40;99.90
14555;DHT22;7364;50.870;4.722;2022-11-15T05:26:19;11.40;99.90
14555;DHT22;7364;50.870;4.722;2022-11-15T05:28:46;11.40;99.90
14555;DHT22;7364;50.870;4.722;2022-11-15T05:31:16;11.40;99.90
14555;DHT22;7364;50.870;4.722;2022-11-15T05:33:43;11.40;99.90
14555;DHT22;7364;50.870;4.722;2022-11-15T05:36:17;11.30;99.90
14555;DHT22;7364;50.870;4.722;2022-11-15T05:38:47;11.20;99.90
14555;DHT22;7364;50.870;4.722;2022-11-15T05:41:21;11.20;99.90
14555;DHT22;7364;50.870;4.722;2022-11-15T05:43:50;11.20;99.90
14555;DHT22;7364;50.870;4.722;2022-11-15T05:46:18;11.10;99.90
14555;DHT22;7364;50.870;4.722;2022-11-15T05:48:49;11.10;99.90
14555;DHT22;7364;50.870;4.722;2022-11-15T05:51:18;11.00;99.90
14555;DHT22;7364;50.870;4.722;2022-11-15T05:53:47;11.00;99.90
14555;DHT22;7364;50.870;4.722;2022-11-15T05:56:15;10.90;99.90
14555;DHT22;7364;50.870;4.722;2022-11-15T05:58:46;10.90;99.90
14555;DHT22;7364;50.870;4.722;2022-11-15T06:01:14;10.90;99.90
14555;DHT22;7364;50.870;4.722;2022-11-15T06:03:41;10.80;99.90
14555;DHT22;7364;50.870;4.722;2022-11-15T06:06:08;10.80;99.90
14555;DHT22;7364;50.870;4.722;2022-11-15T06:08:38;10.80;99.90
14555;DHT22;7364;50.870;4.722;2022-11-15T06:11:06;10.80;99.90
14555;DHT22;7364;50.870;4.722;2022-11-15T06:13:33;10.70;99.90
14555;DHT22;7364;50.870;4.722;2022-11-15T06:16:02;10.70;99.90
14555;DHT22;7364;50.870;4.722;2022-11-15T06:18:32;10.70;99.90
14555;DHT22;7364;50.870;4.722;2022-11-15T06:21:00;10.60;99.90
14555;DHT22;7364;50.870;4.722;2022-11-15T06:23:30;10.60;99.90
14555;DHT22;7364;50.870;4.722;2022-11-15T06:25:58;10.50;99.90
14555;DHT22;7364;50.870;4.722;2022-11-15T06:28:28;10.50;99.90
14555;DHT22;7364;50.870;4.722;2022-11-15T06:30:56;10.50;99.90
14555;DHT22;7364;50.870;4.722;2022-11-15T06:33:30;10.40;99.90
14555;DHT22;7364;50.870;4.722;2022-11-15T06:36:00;10.40;99.90
14555;DHT22;7364;50.870;4.722;2022-11-15T06:38:28;10.40;99.90
14555;DHT22;7364;50.870;4.722;2022-11-15T06:40:55;10.30;99.90
14555;DHT22;7364;50.870;4.722;2022-11-15T06:43:27;10.30;99.90
14555;DHT22;7364;50.870;4.722;2022-11-15T06:45:55;10.30;99.90
14555;DHT22;7364;50.870;4.722;2022-11-15T06:48:22;10.20;99.90
14555;DHT22;7364;50.870;4.722;2022-11-15T06:50:52;10.20;99.90
14555;DHT22;7364;50.870;4.722;2022-11-15T06:53:19;10.20;99.90
14555;DHT22;7364;50.870;4.722;2022-11-15T06:55:47;10.20;99.90
14555;DHT22;7364;50.870;4.722;2022-11-15T06:58:14;10.20;99.90
14555;DHT22;7364;50.870;4.722;2022-11-15T07:00:42;10.10;99.90
14555;DHT22;7364;50.870;4.722;2022-11-15T07:03:10;10.10;99.90
14555;DHT22;7364;50.870;4.722;2022-11-15T07:05:37;10.00;99.90
14555;DHT22;7364;50.870;4.722;2022-11-15T07:08:06;10.00;99.90
14555;DHT22;7364;50.870;4.722;2022-11-15T07:10:33;10.00;99.90
14555;DHT22;7364;50.870;4.722;2022-11-15T07:13:01;10.00;99.90
14555;DHT22;7364;50.870;4.722;2022-11-15T07:15:29;9.90;99.90
14555;DHT22;7364;50.870;4.722;2022-11-15T07:17:56;9.90;99.90
14555;DHT22;7364;50.870;4.722;2022-11-15T07:20:27;9.90;99.90
14555;DHT22;7364;50.870;4.722;2022-11-15T07:23:00;9.90;99.90
14555;DHT22;7364;50.870;4.722;2022-11-15T07:25:29;9.90;99.90
14555;DHT22;7364;50.870;4.722;2022-11-15T07:27:57;9.90;99.90
14555;DHT22;7364;50.870;4.722;2022-11-15T07:30:26;10.00;99.90
14555;DHT22;7364;50.870;4.722;2022-11-15T07:32:54;9.90;99.90
14555;DHT22;7364;50.870;4.722;2022-11-15T07:35:22;10.00;99.90
14555;DHT22;7364;50.870;4.722;2022-11-15T07:37:56;10.00;99.90
14555;DHT22;7364;50.870;4.722;2022-11-15T07:40:25;10.00;99.90
14555;DHT22;7364;50.870;4.722;2022-11-15T07:43:00;9.90;99.90
14555;DHT22;7364;50.870;4.722;2022-11-15T07:45:28;9.90;99.90
14555;DHT22;7364;50.870;4.722;2022-11-15T07:47:56;10.00;99.90
14555;DHT22;7364;50.870;4.722;2022-11-15T07:50:24;10.00;99.90
14555;DHT22;7364;50.870;4.722;2022-11-15T07:52:55;10.00;99.90
14555;DHT22;7364;50.870;4.722;2022-11-15T07:55:27;10.00;99.90
14555;DHT22;7364;50.870;4.722;2022-11-15T07:58:02;10.00;99.90
14555;DHT22;7364;50.870;4.722;2022-11-15T08:00:29;10.00;99.90
14555;DHT22;7364;50.870;4.722;2022-11-15T08:03:04;10.00;99.90
14555;DHT22;7364;50.870;4.722;2022-11-15T08:05:31;10.00;99.90
14555;DHT22;7364;50.870;4.722;2022-11-15T08:07:59;10.00;99.90
14555;DHT22;7364;50.870;4.722;2022-11-15T08:10:27;10.00;99.90
14555;DHT22;7364;50.870;4.722;2022-11-15T08:12:58;10.00;99.90
14555;DHT22;7364;50.870;4.722;2022-11-15T08:15:27;10.00;99.90
14555;DHT22;7364;50.870;4.722;2022-11-15T08:17:55;10.00;99.90
14555;DHT22;7364;50.870;4.722;2022-11-15T08:20:23;10.00;99.90
14555;DHT22;7364;50.870;4.722;2022-11-15T08:22:51;10.00;99.90
14555;DHT22;7364;50.870;4.722;2022-11-15T08:25:18;10.10;99.90
14555;DHT22;7364;50.870;4.722;2022-11-15T08:27:46;10.20;99.90
14555;DHT22;7364;50.870;4.722;2022-11-15T08:30:13;10.20;99.90
14555;DHT22;7364;50.870;4.722;2022-11-15T08:32:43;10.20;99.90
14555;DHT22;7364;50.870;4.722;2022-11-15T08:35:10;10.20;99.90
14555;DHT22;7364;50.870;4.722;2022-11-15T08:37:37;10.30;99.90
14555;DHT22;7364;50.870;4.722;2022-11-15T08:40:06;10.30;99.90
14555;DHT22;7364;50.870;4.722;2022-11-15T08:42:34;10.30;99.90
14555;DHT22;7364;50.870;4.722;2022-11-15T08:45:01;10.30;99.90
14555;DHT22;7364;50.870;4.722;2022-11-15T08:47:28;10.40;99.90
14555;DHT22;7364;50.870;4.722;2022-11-15T08:49:57;10.50;99.90
14555;DHT22;7364;50.870;4.722;2022-11-15T08:52:25;10.50;99.90
14555;DHT22;7364;50.870;4.722;2022-11-15T08:54:55;10.50;99.90
14555;DHT22;7364;50.870;4.722;2022-11-15T08:57:22;10.50;99.90
14555;DHT22;7364;50.870;4.722;2022-11-15T08:59:50;10.50;99.90
14555;DHT22;7364;50.870;4.722;2022-11-15T09:02:17;10.60;99.90
14555;DHT22;7364;50.870;4.722;2022-11-15T09:04:45;10.70;99.90
14555;DHT22;7364;50.870;4.722;2022-11-15T09:07:14;10.70;99.90
14555;DHT22;7364;50.870;4.722;2022-11-15T09:09:41;10.70;99.90
14555;DHT22;7364;50.870;4.722;2022-11-15T09:12:09;10.70;99.90
14555;DHT22;7364;50.870;4.722;2022-11-15T09:14:36;10.60;99.90
14555;DHT22;7364;50.870;4.722;2022-11-15T09:17:03;10.70;99.90
14555;DHT22;7364;50.870;4.722;2022-11-15T09:19:30;10.70;99.90
14555;DHT22;7364;50.870;4.722;2022-11-15T09:21:58;10.80;99.90
14555;DHT22;7364;50.870;4.722;2022-11-15T09:24:26;10.90;99.90
14555;DHT22;7364;50.870;4.722;2022-11-15T09:26:53;11.10;99.90
14555;DHT22;7364;50.870;4.722;2022-11-15T09:29:21;11.10;99.90
14555;DHT22;7364;50.870;4.722;2022-11-15T09:31:48;11.30;99.90
14555;DHT22;7364;50.870;4.722;2022-11-15T09:34:18;11.40;99.90
14555;DHT22;7364;50.870;4.722;2022-11-15T09:36:47;11.50;99.90
14555;DHT22;7364;50.870;4.722;2022-11-15T09:39:15;11.50;99.90
14555;DHT22;7364;50.870;4.722;2022-11-15T09:44:54;11.80;99.90
14555;DHT22;7364;50.870;4.722;2022-11-15T09:50:34;11.90;99.90
14555;DHT22;7364;50.870;4.722;2022-11-15T09:53:03;11.90;99.90
14555;DHT22;7364;50.870;4.722;2022-11-15T09:55:37;12.00;99.90
14555;DHT22;7364;50.870;4.722;2022-11-15T09:58:14;12.10;99.90
14555;DHT22;7364;50.870;4.722;2022-11-15T10:00:47;12.30;99.90
14555;DHT22;7364;50.870;4.722;2022-11-15T10:03:25;12.50;99.90
14555;DHT22;7364;50.870;4.722;2022-11-15T10:05:57;12.80;99.90
14555;DHT22;7364;50.870;4.722;2022-11-15T10:08:44;12.80;99.90
14555;DHT22;7364;50.870;4.722;2022-11-15T10:11:19;13.10;99.90
14555;DHT22;7364;50.870;4.722;2022-11-15T10:13:48;13.30;99.90
14555;DHT22;7364;50.870;4.722;2022-11-15T10:16:36;13.20;99.90
14555;DHT22;7364;50.870;4.722;2022-11-15T10:19:16;13.20;99.90
14555;DHT22;7364;50.870;4.722;2022-11-15T10:21:54;13.50;99.90
14555;DHT22;7364;50.870;4.722;2022-11-15T10:24:28;13.70;99.90
14555;DHT22;7364;50.870;4.722;2022-11-15T10:26:59;13.80;99.90
14555;DHT22;7364;50.870;4.722;2022-11-15T10:29:27;13.80;99.90
14555;DHT22;7364;50.870;4.722;2022-11-15T10:31:55;13.50;99.90
14555;DHT22;7364;50.870;4.722;2022-11-15T10:34:23;13.30;99.90
14555;DHT22;7364;50.870;4.722;2022-11-15T10:36:56;13.20;99.90
14555;DHT22;7364;50.870;4.722;2022-11-15T10:39:23;13.30;99.90
14555;DHT22;7364;50.870;4.722;2022-11-15T10:41:51;13.20;99.90
14555;DHT22;7364;50.870;4.722;2022-11-15T10:44:24;13.30;99.90
14555;DHT22;7364;50.870;4.722;2022-11-15T10:47:27;13.30;99.90
14555;DHT22;7364;50.870;4.722;2022-11-15T10:50:06;13.60;99.90
14555;DHT22;7364;50.870;4.722;2022-11-15T10:52:35;13.90;99.90
14555;DHT22;7364;50.870;4.722;2022-11-15T10:55:20;14.20;99.90
14555;DHT22;7364;50.870;4.722;2022-11-15T10:57:51;14.30;99.90
14555;DHT22;7364;50.870;4.722;2022-11-15T11:00:32;14.60;99.90
14555;DHT22;7364;50.870;4.722;2022-11-15T11:03:04;14.70;99.90
14555;DHT22;7364;50.870;4.722;2022-11-15T11:05:34;14.40;99.90
14555;DHT22;7364;50.870;4.722;2022-11-15T11:08:09;14.40;99.90
14555;DHT22;7364;50.870;4.722;2022-11-15T11:10:52;14.50;99.90
14555;DHT22;7364;50.870;4.722;2022-11-15T11:13:23;14.40;99.90
14555;DHT22;7364;50.870;4.722;2022-11-15T11:15:59;14.40;99.90
14555;DHT22;7364;50.870;4.722;2022-11-15T11:18:37;14.40;99.90
14555;DHT22;7364;50.870;4.722;2022-11-15T11:21:10;14.20;99.90
14555;DHT22;7364;50.870;4.722;2022-11-15T11:23:48;14.10;99.90
14555;DHT22;7364;50.870;4.722;2022-11-15T11:26:35;14.00;99.90
14555;DHT22;7364;50.870;4.722;2022-11-15T11:29:15;14.00;99.90
14555;DHT22;7364;50.870;4.722;2022-11-15T11:31:53;14.10;99.90
14555;DHT22;7364;50.870;4.722;2022-11-15T11:34:34;14.10;99.90
14555;DHT22;7364;50.870;4.722;2022-11-15T11:37:11;14.20;99.90
14555;DHT22;7364;50.870;4.722;2022-11-15T11:39:50;14.20;99.90
14555;DHT22;7364;50.870;4.722;2022-11-15T11:42:30;14.30;99.90
14555;DHT22;7364;50.870;4.722;2022-11-15T11:45:15;14.30;99.90
14555;DHT22;7364;50.870;4.722;2022-11-15T11:47:47;14.10;99.90
14555;DHT22;7364;50.870;4.722;2022-11-15T11:50:19;14.10;99.90
14555;DHT22;7364;50.870;4.722;2022-11-15T11:52:56;14.20;99.90
14555;DHT22;7364;50.870;4.722;2022-11-15T11:55:28;14.20;99.90
14555;DHT22;7364;50.870;4.722;2022-11-15T11:58:05;14.20;99.90
14555;DHT22;7364;50.870;4.722;2022-11-15T12:00:38;14.20;99.90
14555;DHT22;7364;50.870;4.722;2022-11-15T12:03:11;14.20;99.90
14555;DHT22;7364;50.870;4.722;2022-11-15T12:05:44;14.20;99.90
14555;DHT22;7364;50.870;4.722;2022-11-15T12:08:26;14.20;99.90
14555;DHT22;7364;50.870;4.722;2022-11-15T12:11:00;14.20;99.90
14555;DHT22;7364;50.870;4.722;2022-11-15T12:13:31;14.20;99.90
14555;DHT22;7364;50.870;4.722;2022-11-15T12:16:08;14.20;99.90
14555;DHT22;7364;50.870;4.722;2022-11-15T12:18:37;14.20;99.90
14555;DHT22;7364;50.870;4.722;2022-11-15T12:21:13;14.10;99.90
14555;DHT22;7364;50.870;4.722;2022-11-15T12:23:47;14.10;99.90
14555;DHT22;7364;50.870;4.722;2022-11-15T12:26:19;14.10;99.90
14555;DHT22;7364;50.870;4.722;2022-11-15T12:28:50;14.10;99.90
14555;DHT22;7364;50.870;4.722;2022-11-15T12:31:23;14.00;99.90
14555;DHT22;7364;50.870;4.722;2022-11-15T12:33:55;14.00;99.90
14555;DHT22;7364;50.870;4.722;2022-11-15T12:36:38;13.90;99.90
14555;DHT22;7364;50.870;4.722;2022-11-15T12:39:07;13.90;99.90
14555;DHT22;7364;50.870;4.722;2022-11-15T12:41:36;13.90;99.90
14555;DHT22;7364;50.870;4.722;2022-11-15T12:44:04;13.90;99.90
14555;DHT22;7364;50.870;4.722;2022-11-15T12:47:04;13.90;99.90
14555;DHT22;7364;50.870;4.722;2022-11-15T12:49:46;13.90;99.90
14555;DHT22;7364;50.870;4.722;2022-11-15T12:52:15;13.90;99.90
14555;DHT22;7364;50.870;4.722;2022-11-15T12:58:27;13.80;99.90
14555;DHT22;7364;50.870;4.722;2022-11-15T13:00:55;13.80;99.90
14555;DHT22;7364;50.870;4.722;2022-11-15T13:03:25;13.80;99.90
14555;DHT22;7364;50.870;4.722;2022-11-15T13:08:59;14.00;99.90
14555;DHT22;7364;50.870;4.722;2022-11-15T13:11:50;14.10;99.90
14555;DHT22;7364;50.870;4.722;2022-11-15T13:14:43;14.10;99.90
14555;DHT22;7364;50.870;4.722;2022-11-15T13:17:24;14.10;99.90
14555;DHT22;7364;50.870;4.722;2022-11-15T13:19:58;14.20;99.90
14555;DHT22;7364;50.870;4.722;2022-11-15T13:22:26;14.20;99.90
14555;DHT22;7364;50.870;4.722;2022-11-15T13:25:27;14.20;99.90
14555;DHT22;7364;50.870;4.722;2022-11-15T13:27:58;14.20;99.90
14555;DHT22;7364;50.870;4.722;2022-11-15T13:30:27;14.20;99.90
14555;DHT22;7364;50.870;4.722;2022-11-15T13:32:56;14.20;99.90
14555;DHT22;7364;50.870;4.722;2022-11-15T13:35:27;14.20;99.90
14555;DHT22;7364;50.870;4.722;2022-11-15T13:38:04;14.20;99.90
14555;DHT22;7364;50.870;4.722;2022-11-15T13:40:36;14.20;99.90
14555;DHT22;7364;50.870;4.722;2022-11-15T13:43:23;14.10;99.90
14555;DHT22;7364;50.870;4.722;2022-11-15T13:46:05;14.10;99.90
14555;DHT22;7364;50.870;4.722;2022-11-15T13:48:33;14.20;99.90
14555;DHT22;7364;50.870;4.722;2022-11-15T13:51:01;14.20;99.90
14555;DHT22;7364;50.870;4.722;2022-11-15T13:53:31;14.20;99.90
14555;DHT22;7364;50.870;4.722;2022-11-15T13:56:02;14.10;99.90
14555;DHT22;7364;50.870;4.722;2022-11-15T13:58:30;14.20;99.90
14555;DHT22;7364;50.870;4.722;2022-11-15T14:01:00;14.30;99.90
14555;DHT22;7364;50.870;4.722;2022-11-15T14:03:29;14.20;99.90
14555;DHT22;7364;50.870;4.722;2022-11-15T14:06:05;14.20;99.90
14555;DHT22;7364;50.870;4.722;2022-11-15T14:08:34;14.10;99.90
14555;DHT22;7364;50.870;4.722;2022-11-15T14:11:14;14.00;99.90
14555;DHT22;7364;50.870;4.722;2022-11-15T14:13:58;14.00;99.90
14555;DHT22;7364;50.870;4.722;2022-11-15T14:16:34;14.10;99.90
14555;DHT22;7364;50.870;4.722;2022-11-15T14:19:03;14.10;99.90
14555;DHT22;7364;50.870;4.722;2022-11-15T14:21:31;14.10;99.90
14555;DHT22;7364;50.870;4.722;2022-11-15T14:24:13;14.00;99.90
14555;DHT22;7364;50.870;4.722;2022-11-15T14:26:42;14.00;99.90
14555;DHT22;7364;50.870;4.722;2022-11-15T14:29:23;13.90;99.90
14555;DHT22;7364;50.870;4.722;2022-11-15T14:31:51;13.90;99.90
14555;DHT22;7364;50.870;4.722;2022-11-15T14:34:18;13.80;99.90
14555;DHT22;7364;50.870;4.722;2022-11-15T14:36:47;13.80;99.90
14555;DHT22;7364;50.870;4.722;2022-11-15T14:39:15;13.90;99.90
14555;DHT22;7364;50.870;4.722;2022-11-15T14:41:44;13.90;99.90
14555;DHT22;7364;50.870;4.722;2022-11-15T14:44:12;13.80;99.90
14555;DHT22;7364;50.870;4.722;2022-11-15T14:46:44;13.70;99.90
14555;DHT22;7364;50.870;4.722;2022-11-15T14:49:12;13.70;99.90
14555;DHT22;7364;50.870;4.722;2022-11-15T14:51:40;13.60;99.90
14555;DHT22;7364;50.870;4.722;2022-11-15T14:54:09;13.60;99.90
14555;DHT22;7364;50.870;4.722;2022-11-15T14:56:37;13.50;99.90
14555;DHT22;7364;50.870;4.722;2022-11-15T14:59:06;13.50;99.90
14555;DHT22;7364;50.870;4.722;2022-11-15T15:01:33;13.50;99.90
14555;DHT22;7364;50.870;4.722;2022-11-15T15:04:00;13.50;99.90
14555;DHT22;7364;50.870;4.722;2022-11-15T15:06:27;13.50;99.90
14555;DHT22;7364;50.870;4.722;2022-11-15T15:08:56;13.40;99.90
14555;DHT22;7364;50.870;4.722;2022-11-15T15:11:25;13.40;99.90
14555;DHT22;7364;50.870;4.722;2022-11-15T15:13:53;13.40;99.90
14555;DHT22;7364;50.870;4.722;2022-11-15T15:16:24;13.40;99.90
14555;DHT22;7364;50.870;4.722;2022-11-15T15:18:51;13.30;99.90
14555;DHT22;7364;50.870;4.722;2022-11-15T15:21:21;13.30;99.90
14555;DHT22;7364;50.870;4.722;2022-11-15T15:23:48;13.30;99.90
14555;DHT22;7364;50.870;4.722;2022-11-15T15:26:18;13.20;99.90
14555;DHT22;7364;50.870;4.722;2022-11-15T15:28:46;13.20;99.90
14555;DHT22;7364;50.870;4.722;2022-11-15T15:31:14;13.20;99.90
14555;DHT22;7364;50.870;4.722;2022-11-15T15:33:43;13.20;99.90
14555;DHT22;7364;50.870;4.722;2022-11-15T15:36:12;13.10;99.90
14555;DHT22;7364;50.870;4.722;2022-11-15T15:38:39;13.10;99.90
14555;DHT22;7364;50.870;4.722;2022-11-15T15:41:10;13.10;99.90
14555;DHT22;7364;50.870;4.722;2022-11-15T15:43:37;13.10;99.90
14555;DHT22;7364;50.870;4.722;2022-11-15T15:46:07;13.10;99.90
14555;DHT22;7364;50.870;4.722;2022-11-15T15:48:35;13.10;99.90
14555;DHT22;7364;50.870;4.722;2022-11-15T15:51:05;13.10;99.90
14555;DHT22;7364;50.870;4.722;2022-11-15T15:53:33;13.00;99.90
14555;DHT22;7364;50.870;4.722;2022-11-15T15:56:01;13.00;99.90
14555;DHT22;7364;50.870;4.722;2022-11-15T15:58:28;13.00;99.90
14555;DHT22;7364;50.870;4.722;2022-11-15T16:00:57;13.00;99.90
14555;DHT22;7364;50.870;4.722;2022-11-15T16:03:25;12.90;99.90
14555;DHT22;7364;50.870;4.722;2022-11-15T16:05:53;12.90;99.90
14555;DHT22;7364;50.870;4.722;2022-11-15T16:08:24;12.80;99.90
14555;DHT22;7364;50.870;4.722;2022-11-15T16:10:52;12.80;99.90
14555;DHT22;7364;50.870;4.722;2022-11-15T16:13:19;12.80;99.90
14555;DHT22;7364;50.870;4.722;2022-11-15T16:15:50;12.80;99.90
14555;DHT22;7364;50.870;4.722;2022-11-15T16:18:19;12.80;99.90
14555;DHT22;7364;50.870;4.722;2022-11-15T16:20:48;12.80;99.90
14555;DHT22;7364;50.870;4.722;2022-11-15T16:23:23;12.80;99.90
14555;DHT22;7364;50.870;4.722;2022-11-15T16:25:52;12.70;99.90
14555;DHT22;7364;50.870;4.722;2022-11-15T16:28:23;12.70;99.90
14555;DHT22;7364;50.870;4.722;2022-11-15T16:31:02;12.70;99.90
14555;DHT22;7364;50.870;4.722;2022-11-15T16:33:31;12.70;99.90
14555;DHT22;7364;50.870;4.722;2022-11-15T16:35:59;12.70;99.90
14555;DHT22;7364;50.870;4.722;2022-11-15T16:38:28;12.70;99.90